sensor_id;sensor_type;location;lat;lon;timestamp;pressure;altitude;pressure_sealevel;temperature;humidity
68594;BME280;55563;52.416;13.548;2023-03-18T00:01:23;100648.78;;;7.72;100.00
68594;BME280;55563;52.416;13.548;2023-03-18T00:03:43;100641.78;;;7.77;100.00
68594;BME280;55563;52.416;13.548;2023-03-18T00:06:06;100642.03;;;7.76;99.64
68594;BME280;55563;52.416;13.548;2023-03-18T00:08:21;100643.84;;;7.75;98.63
68594;BME280;55563;52.416;13.548;2023-03-18T00:10:36;100647.09;;;7.82;97.56
68594;BME280;55563;52.416;13.548;2023-03-18T00:12:50;100648.13;;;7.81;98.74
68594;BME280;55563;52.416;13.548;2023-03-18T00:15:05;100653.03;;;7.78;98.86
68594;BME280;55563;52.416;13.548;2023-03-18T00:17:21;100647.28;;;7.76;99.48
68594;BME280;55563;52.416;13.548;2023-03-18T00:19:36;100647.72;;;7.73;99.56
68594;BME280;55563;52.416;13.548;2023-03-18T00:21:56;100643.28;;;7.73;98.74
68594;BME280;55563;52.416;13.548;2023-03-18T00:24:04;100646.94;;;7.72;98.25
68594;BME280;55563;52.416;13.548;2023-03-18T00:26:25;100648.78;;;7.72;98.92
68594;BME280;55563;52.416;13.548;2023-03-18T00:28:34;100634.03;;;7.66;98.85
68594;BME280;55563;52.416;13.548;2023-03-18T00:31:04;100631.19;;;7.67;99.75
68594;BME280;55563;52.416;13.548;2023-03-18T00:33:35;100633.72;;;7.62;99.03
68594;BME280;55563;52.416;13.548;2023-03-18T00:35:58;100636.00;;;7.59;98.63
68594;BME280;55563;52.416;13.548;2023-03-18T00:38:12;100635.69;;;7.55;99.37
68594;BME280;55563;52.416;13.548;2023-03-18T00:40:29;100626.81;;;7.56;100.00
68594;BME280;55563;52.416;13.548;2023-03-18T00:43:13;100631.56;;;7.59;99.02
68594;BME280;55563;52.416;13.548;2023-03-18T00:45:20;100634.09;;;7.54;100.00
68594;BME280;55563;52.416;13.548;2023-03-18T00:47:41;100633.56;;;7.52;100.00
68594;BME280;55563;52.416;13.548;2023-03-18T00:49:49;100631.47;;;7.54;99.02
68594;BME280;55563;52.416;13.548;2023-03-18T00:52:10;100622.75;;;7.49;99.42
68594;BME280;55563;52.416;13.548;2023-03-18T00:54:17;100630.78;;;7.42;100.00
68594;BME280;55563;52.416;13.548;2023-03-18T00:56:45;100623.16;;;7.40;100.00
68594;BME280;55563;52.416;13.548;2023-03-18T00:59:14;100632.53;;;7.36;100.00
68594;BME280;55563;52.416;13.548;2023-03-18T01:01:21;100635.63;;;7.33;100.00
68594;BME280;55563;52.416;13.548;2023-03-18T01:03:45;100637.56;;;7.26;100.00
68594;BME280;55563;52.416;13.548;2023-03-18T01:05:54;100627.78;;;7.33;100.00
68594;BME280;55563;52.416;13.548;2023-03-18T01:08:24;100627.44;;;7.30;99.64
68594;BME280;55563;52.416;13.548;2023-03-18T01:10:52;100628.13;;;7.25;100.00
68594;BME280;55563;52.416;13.548;2023-03-18T01:12:59;100628.41;;;7.24;100.00
68594;BME280;55563;52.416;13.548;2023-03-18T01:15:27;100627.81;;;7.22;100.00
68594;BME280;55563;52.416;13.548;2023-03-18T01:17:34;100634.16;;;7.26;100.00
68594;BME280;55563;52.416;13.548;2023-03-18T01:20:02;100623.88;;;7.19;100.00
68594;BME280;55563;52.416;13.548;2023-03-18T01:22:10;100619.69;;;7.18;100.00
68594;BME280;55563;52.416;13.548;2023-03-18T01:24:35;100628.44;;;7.12;100.00
68594;BME280;55563;52.416;13.548;2023-03-18T01:26:43;100633.69;;;7.12;100.00
68594;BME280;55563;52.416;13.548;2023-03-18T01:29:11;100623.78;;;7.14;100.00
68594;BME280;55563;52.416;13.548;2023-03-18T01:31:18;100622.28;;;7.18;100.00
68594;BME280;55563;52.416;13.548;2023-03-18T01:33:44;100615.59;;;7.11;100.00
68594;BME280;55563;52.416;13.548;2023-03-18T01:35:59;100617.19;;;7.12;100.00
68594;BME280;55563;52.416;13.548;2023-03-18T01:38:28;100624.25;;;7.11;100.00
68594;BME280;55563;52.416;13.548;2023-03-18T01:40:52;100606.22;;;7.10;100.00
68594;BME280;55563;52.416;13.548;2023-03-18T01:45:29;100607.53;;;7.12;100.00
68594;BME280;55563;52.416;13.548;2023-03-18T01:47:57;100616.41;;;7.11;100.00
68594;BME280;55563;52.416;13.548;2023-03-18T01:50:30;100612.53;;;7.14;100.00
68594;BME280;55563;52.416;13.548;2023-03-18T01:52:39;100606.97;;;7.10;100.00
68594;BME280;55563;52.416;13.548;2023-03-18T01:55:12;100604.13;;;7.12;100.00
68594;BME280;55563;52.416;13.548;2023-03-18T01:57:21;100609.13;;;7.13;100.00
68594;BME280;55563;52.416;13.548;2023-03-18T01:59:45;100611.03;;;7.18;99.20
68594;BME280;55563;52.416;13.548;2023-03-18T02:02:00;100617.06;;;7.18;99.56
68594;BME280;55563;52.416;13.548;2023-03-18T02:04:33;100620.69;;;7.17;100.00
68594;BME280;55563;52.416;13.548;2023-03-18T02:07:03;100604.44;;;7.15;100.00
68594;BME280;55563;52.416;13.548;2023-03-18T02:09:30;100609.94;;;7.14;100.00
68594;BME280;55563;52.416;13.548;2023-03-18T02:11:42;100617.78;;;7.14;100.00
68594;BME280;55563;52.416;13.548;2023-03-18T02:14:13;100613.34;;;7.14;100.00
68594;BME280;55563;52.416;13.548;2023-03-18T02:16:27;100617.19;;;7.12;100.00
68594;BME280;55563;52.416;13.548;2023-03-18T02:19:00;100615.25;;;7.19;99.70
68594;BME280;55563;52.416;13.548;2023-03-18T02:21:46;100610.00;;;7.19;98.73
68594;BME280;55563;52.416;13.548;2023-03-18T02:27:02;100601.84;;;7.15;99.34
68594;BME280;55563;52.416;13.548;2023-03-18T02:29:33;100609.94;;;7.14;100.00
68594;BME280;55563;52.416;13.548;2023-03-18T02:31:48;100610.38;;;7.11;100.00
68594;BME280;55563;52.416;13.548;2023-03-18T02:34:17;100608.56;;;7.11;100.00
68594;BME280;55563;52.416;13.548;2023-03-18T02:36:28;100612.78;;;7.12;99.25
68594;BME280;55563;52.416;13.548;2023-03-18T02:38:58;100612.78;;;7.12;100.00
68594;BME280;55563;52.416;13.548;2023-03-18T02:41:12;100609.03;;;7.08;100.00
68594;BME280;55563;52.416;13.548;2023-03-18T02:43:41;100607.75;;;7.11;100.00
68594;BME280;55563;52.416;13.548;2023-03-18T02:46:30;100609.28;;;7.07;100.00
68594;BME280;55563;52.416;13.548;2023-03-18T02:48:45;100604.84;;;7.07;100.00
68594;BME280;55563;52.416;13.548;2023-03-18T02:51:01;100609.28;;;7.07;100.00
68594;BME280;55563;52.416;13.548;2023-03-18T02:53:16;100609.34;;;7.12;100.00
68594;BME280;55563;52.416;13.548;2023-03-18T02:55:44;100603.41;;;7.16;99.55
68594;BME280;55563;52.416;13.548;2023-03-18T02:58:12;100602.88;;;7.14;99.53
68594;BME280;55563;52.416;13.548;2023-03-18T03:00:20;100593.13;;;7.10;99.71
68594;BME280;55563;52.416;13.548;2023-03-18T03:02:49;100595.75;;;7.10;100.00
68594;BME280;55563;52.416;13.548;2023-03-18T03:04:56;100598.81;;;7.07;100.00
68594;BME280;55563;52.416;13.548;2023-03-18T03:07:27;100601.34;;;7.01;100.00
68594;BME280;55563;52.416;13.548;2023-03-18T03:09:35;100591.38;;;6.98;100.00
68594;BME280;55563;52.416;13.548;2023-03-18T03:11:57;100599.44;;;6.97;100.00
68594;BME280;55563;52.416;13.548;2023-03-18T03:14:04;100599.91;;;6.94;100.00
68594;BME280;55563;52.416;13.548;2023-03-18T03:16:34;100594.22;;;6.97;100.00
68594;BME280;55563;52.416;13.548;2023-03-18T03:18:57;100607.84;;;6.99;100.00
68594;BME280;55563;52.416;13.548;2023-03-18T03:21:12;100603.06;;;6.96;100.00
68594;BME280;55563;52.416;13.548;2023-03-18T03:23:26;100602.75;;;6.92;100.00
68594;BME280;55563;52.416;13.548;2023-03-18T03:25:41;100605.38;;;6.92;100.00
68594;BME280;55563;52.416;13.548;2023-03-18T03:28:06;100599.13;;;6.93;100.00
68594;BME280;55563;52.416;13.548;2023-03-18T03:30:28;100604.34;;;6.93;100.00
68594;BME280;55563;52.416;13.548;2023-03-18T03:32:56;100610.91;;;6.96;100.00
68594;BME280;55563;52.416;13.548;2023-03-18T03:35:03;100608.06;;;6.97;100.00
68594;BME280;55563;52.416;13.548;2023-03-18T03:37:32;100606.16;;;6.93;100.00
68594;BME280;55563;52.416;13.548;2023-03-18T03:39:39;100610.38;;;6.94;100.00
68594;BME280;55563;52.416;13.548;2023-03-18T03:42:00;100610.13;;;6.95;100.00
68594;BME280;55563;52.416;13.548;2023-03-18T03:44:07;100613.78;;;6.94;100.00
68594;BME280;55563;52.416;13.548;2023-03-18T03:46:36;100631.59;;;6.97;100.00
68594;BME280;55563;52.416;13.548;2023-03-18T03:48:43;100616.13;;;6.96;100.00
68594;BME280;55563;52.416;13.548;2023-03-18T03:51:12;100620.25;;;6.92;100.00
68594;BME280;55563;52.416;13.548;2023-03-18T03:53:40;100608.47;;;6.89;100.00
68594;BME280;55563;52.416;13.548;2023-03-18T03:55:48;100613.34;;;6.86;100.00
68594;BME280;55563;52.416;13.548;2023-03-18T03:58:16;100611.88;;;6.90;100.00
68594;BME280;55563;52.416;13.548;2023-03-18T04:00:23;100618.66;;;6.91;100.00
68594;BME280;55563;52.416;13.548;2023-03-18T04:02:44;100619.00;;;6.94;100.00
68594;BME280;55563;52.416;13.548;2023-03-18T04:04:53;100609.78;;;6.92;100.00
68594;BME280;55563;52.416;13.548;2023-03-18T04:07:22;100615.72;;;6.87;100.00
68594;BME280;55563;52.416;13.548;2023-03-18T04:09:50;100613.13;;;6.87;100.00
68594;BME280;55563;52.416;13.548;2023-03-18T04:11:57;100621.53;;;6.89;100.00
68594;BME280;55563;52.416;13.548;2023-03-18T04:14:18;100617.09;;;6.90;100.00
68594;BME280;55563;52.416;13.548;2023-03-18T04:16:25;100622.31;;;6.90;100.00
68594;BME280;55563;52.416;13.548;2023-03-18T04:18:53;100614.22;;;6.91;100.00
68594;BME280;55563;52.416;13.548;2023-03-18T04:21:21;100617.53;;;6.87;100.00
68594;BME280;55563;52.416;13.548;2023-03-18T04:23:29;100615.72;;;6.87;100.00
68594;BME280;55563;52.416;13.548;2023-03-18T04:25:50;100619.69;;;6.90;100.00
68594;BME280;55563;52.416;13.548;2023-03-18T04:28:05;100625.47;;;6.92;100.00
68594;BME280;55563;52.416;13.548;2023-03-18T04:30:20;100631.19;;;6.89;100.00
68594;BME280;55563;52.416;13.548;2023-03-18T04:32:40;100641.06;;;6.87;100.00
68594;BME280;55563;52.416;13.548;2023-03-18T04:34:54;100639.94;;;6.83;100.00
68594;BME280;55563;52.416;13.548;2023-03-18T04:37:08;100634.28;;;6.74;100.00
68594;BME280;55563;52.416;13.548;2023-03-18T04:39:27;100637.22;;;6.78;100.00
68594;BME280;55563;52.416;13.548;2023-03-18T04:41:41;100638.50;;;6.75;100.00
68594;BME280;55563;52.416;13.548;2023-03-18T04:43:57;100630.88;;;6.74;100.00
68594;BME280;55563;52.416;13.548;2023-03-18T04:46:19;100635.44;;;6.67;100.00
68594;BME280;55563;52.416;13.548;2023-03-18T04:48:37;100634.28;;;6.74;100.00
68594;BME280;55563;52.416;13.548;2023-03-18T04:50:51;100640.44;;;6.68;100.00
68594;BME280;55563;52.416;13.548;2023-03-18T04:53:09;100644.66;;;6.69;100.00
68594;BME280;55563;52.416;13.548;2023-03-18T04:55:25;100644.66;;;6.69;100.00
68594;BME280;55563;52.416;13.548;2023-03-18T04:57:43;100643.84;;;6.69;100.00
68594;BME280;55563;52.416;13.548;2023-03-18T04:59:58;100646.13;;;6.65;100.00
68594;BME280;55563;52.416;13.548;2023-03-18T05:02:12;100648.97;;;6.64;100.00
68594;BME280;55563;52.416;13.548;2023-03-18T05:04:26;100641.84;;;6.59;100.00
68594;BME280;55563;52.416;13.548;2023-03-18T05:06:41;100646.72;;;6.55;100.00
68594;BME280;55563;52.416;13.548;2023-03-18T05:08:55;100650.59;;;6.53;100.00
68594;BME280;55563;52.416;13.548;2023-03-18T05:11:19;100643.31;;;6.55;100.00
68594;BME280;55563;52.416;13.548;2023-03-18T05:13:28;100641.41;;;6.50;100.00
68594;BME280;55563;52.416;13.548;2023-03-18T05:15:51;100644.03;;;6.50;100.00
68594;BME280;55563;52.416;13.548;2023-03-18T05:17:59;100650.47;;;6.48;100.00
68594;BME280;55563;52.416;13.548;2023-03-18T05:20:21;100641.53;;;6.44;100.00
68594;BME280;55563;52.416;13.548;2023-03-18T05:22:29;100640.97;;;6.42;100.00
68594;BME280;55563;52.416;13.548;2023-03-18T05:24:56;100648.72;;;6.37;100.00
68594;BME280;55563;52.416;13.548;2023-03-18T05:27:06;100658.03;;;6.33;100.00
68594;BME280;55563;52.416;13.548;2023-03-18T05:29:44;100647.81;;;6.31;100.00
68594;BME280;55563;52.416;13.548;2023-03-18T05:32:21;100654.63;;;6.32;100.00
68594;BME280;55563;52.416;13.548;2023-03-18T05:34:52;100648.94;;;6.24;100.00
68594;BME280;55563;52.416;13.548;2023-03-18T05:37:00;100649.72;;;6.24;100.00
68594;BME280;55563;52.416;13.548;2023-03-18T05:39:16;100652.59;;;6.23;100.00
68594;BME280;55563;52.416;13.548;2023-03-18T05:41:30;100652.13;;;6.26;100.00
68594;BME280;55563;52.416;13.548;2023-03-18T05:43:40;100651.09;;;6.27;100.00
68594;BME280;55563;52.416;13.548;2023-03-18T05:46:01;100650.66;;;6.18;100.00
68594;BME280;55563;52.416;13.548;2023-03-18T05:48:20;100655.53;;;6.26;100.00
68594;BME280;55563;52.416;13.548;2023-03-18T05:50:45;100664.69;;;6.29;100.00
68594;BME280;55563;52.416;13.548;2023-03-18T05:52:57;100658.47;;;6.30;100.00
68594;BME280;55563;52.416;13.548;2023-03-18T05:55:21;100658.72;;;6.28;100.00
68594;BME280;55563;52.416;13.548;2023-03-18T05:57:29;100669.69;;;6.30;100.00
68594;BME280;55563;52.416;13.548;2023-03-18T05:59:54;100662.19;;;6.34;100.00
68594;BME280;55563;52.416;13.548;2023-03-18T06:02:18;100660.84;;;6.31;100.00
68594;BME280;55563;52.416;13.548;2023-03-18T06:04:47;100663.56;;;6.36;100.00
68594;BME280;55563;52.416;13.548;2023-03-18T06:07:15;100659.25;;;6.42;100.00
68594;BME280;55563;52.416;13.548;2023-03-18T06:09:22;100664.22;;;6.43;100.00
68594;BME280;55563;52.416;13.548;2023-03-18T06:11:51;100659.00;;;6.43;100.00
68594;BME280;55563;52.416;13.548;2023-03-18T06:14:19;100655.16;;;6.46;100.00
68594;BME280;55563;52.416;13.548;2023-03-18T06:16:26;100660.94;;;6.48;100.00
68594;BME280;55563;52.416;13.548;2023-03-18T06:18:47;100664.44;;;6.53;100.00
68594;BME280;55563;52.416;13.548;2023-03-18T06:20:54;100659.53;;;6.57;100.00
68594;BME280;55563;52.416;13.548;2023-03-18T06:23:22;100671.94;;;6.62;100.00
68594;BME280;55563;52.416;13.548;2023-03-18T06:25:30;100667.47;;;6.62;100.00
68594;BME280;55563;52.416;13.548;2023-03-18T06:27:59;100664.84;;;6.74;100.00
68594;BME280;55563;52.416;13.548;2023-03-18T06:30:10;100658.81;;;6.73;100.00
68594;BME280;55563;52.416;13.548;2023-03-18T06:32:31;100674.72;;;6.72;100.00
68594;BME280;55563;52.416;13.548;2023-03-18T06:34:40;100671.34;;;6.71;100.00
68594;BME280;55563;52.416;13.548;2023-03-18T06:37:01;100674.03;;;6.76;100.00
68594;BME280;55563;52.416;13.548;2023-03-18T06:39:15;100675.97;;;6.81;100.00
68594;BME280;55563;52.416;13.548;2023-03-18T06:41:30;100677.63;;;6.87;100.00
68594;BME280;55563;52.416;13.548;2023-03-18T06:44:00;100676.13;;;6.91;100.00
68594;BME280;55563;52.416;13.548;2023-03-18T06:46:21;100684.06;;;6.96;100.00
68594;BME280;55563;52.416;13.548;2023-03-18T06:48:30;100677.00;;;7.08;100.00
68594;BME280;55563;52.416;13.548;2023-03-18T06:50:55;100689.91;;;7.15;100.00
68594;BME280;55563;52.416;13.548;2023-03-18T06:53:14;100680.00;;;7.17;100.00
68594;BME280;55563;52.416;13.548;2023-03-18T06:55:29;100684.31;;;7.23;100.00
68594;BME280;55563;52.416;13.548;2023-03-18T06:57:44;100680.06;;;7.33;100.00
68594;BME280;55563;52.416;13.548;2023-03-18T07:00:12;100700.63;;;7.30;100.00
68594;BME280;55563;52.416;13.548;2023-03-18T07:02:23;100697.41;;;7.39;100.00
68594;BME280;55563;52.416;13.548;2023-03-18T07:04:44;100698.75;;;7.42;100.00
68594;BME280;55563;52.416;13.548;2023-03-18T07:06:51;100698.22;;;7.57;100.00
68594;BME280;55563;52.416;13.548;2023-03-18T07:09:12;100700.28;;;7.55;100.00
68594;BME280;55563;52.416;13.548;2023-03-18T07:11:32;100702.66;;;7.73;100.00
68594;BME280;55563;52.416;13.548;2023-03-18T07:13:57;100701.25;;;7.65;100.00
68594;BME280;55563;52.416;13.548;2023-03-18T07:16:08;100721.78;;;7.73;100.00
68594;BME280;55563;52.416;13.548;2023-03-18T07:18:29;100716.88;;;7.94;100.00
68594;BME280;55563;52.416;13.548;2023-03-18T07:20:44;100720.91;;;7.84;100.00
68594;BME280;55563;52.416;13.548;2023-03-18T07:22:58;100727.25;;;8.05;100.00
68594;BME280;55563;52.416;13.548;2023-03-18T07:25:12;100722.09;;;8.10;100.00
68594;BME280;55563;52.416;13.548;2023-03-18T07:27:26;100727.09;;;8.12;100.00
68594;BME280;55563;52.416;13.548;2023-03-18T07:29:41;100727.19;;;8.34;100.00
68594;BME280;55563;52.416;13.548;2023-03-18T07:31:55;100723.50;;;8.18;100.00
68594;BME280;55563;52.416;13.548;2023-03-18T07:34:10;100728.09;;;8.27;100.00
68594;BME280;55563;52.416;13.548;2023-03-18T07:36:25;100732.31;;;8.28;100.00
68594;BME280;55563;52.416;13.548;2023-03-18T07:38:40;100720.31;;;8.49;100.00
68594;BME280;55563;52.416;13.548;2023-03-18T07:40:54;100715.13;;;8.54;100.00
68594;BME280;55563;52.416;13.548;2023-03-18T07:43:09;100719.56;;;8.32;100.00
68594;BME280;55563;52.416;13.548;2023-03-18T07:45:30;100726.03;;;8.46;100.00
68594;BME280;55563;52.416;13.548;2023-03-18T07:47:37;100743.72;;;8.56;100.00
68594;BME280;55563;52.416;13.548;2023-03-18T07:49:58;100737.97;;;8.59;100.00
68594;BME280;55563;52.416;13.548;2023-03-18T07:52:06;100743.06;;;8.65;99.77
68594;BME280;55563;52.416;13.548;2023-03-18T07:54:27;100744.44;;;8.73;99.42
68594;BME280;55563;52.416;13.548;2023-03-18T07:56:41;100741.88;;;8.78;99.87
68594;BME280;55563;52.416;13.548;2023-03-18T07:59:02;100739.09;;;8.85;99.98
68594;BME280;55563;52.416;13.548;2023-03-18T08:01:16;100753.38;;;8.94;99.33
68594;BME280;55563;52.416;13.548;2023-03-18T08:03:38;100746.81;;;9.18;96.45
68594;BME280;55563;52.416;13.548;2023-03-18T08:05:53;100746.94;;;9.28;95.10
68594;BME280;55563;52.416;13.548;2023-03-18T08:08:07;100757.03;;;9.41;94.28
68594;BME280;55563;52.416;13.548;2023-03-18T08:10:22;100757.31;;;9.45;94.63
68594;BME280;55563;52.416;13.548;2023-03-18T08:12:37;100760.75;;;9.45;95.91
68594;BME280;55563;52.416;13.548;2023-03-18T08:14:52;100757.47;;;9.60;94.27
68594;BME280;55563;52.416;13.548;2023-03-18T08:17:13;100761.72;;;9.66;95.08
68594;BME280;55563;52.416;13.548;2023-03-18T08:19:28;100768.13;;;9.48;94.97
68594;BME280;55563;52.416;13.548;2023-03-18T08:21:48;100773.16;;;9.55;96.08
68594;BME280;55563;52.416;13.548;2023-03-18T08:24:03;100757.78;;;9.63;97.37
68594;BME280;55563;52.416;13.548;2023-03-18T08:26:17;100765.16;;;9.67;97.33
68594;BME280;55563;52.416;13.548;2023-03-18T08:28:32;100766.88;;;9.83;96.89
68594;BME280;55563;52.416;13.548;2023-03-18T08:30:55;100761.78;;;10.03;96.90
68594;BME280;55563;52.416;13.548;2023-03-18T08:33:04;100773.03;;;9.98;97.00
68594;BME280;55563;52.416;13.548;2023-03-18T08:35:32;100773.31;;;9.97;96.91
68594;BME280;55563;52.416;13.548;2023-03-18T08:37:40;100770.09;;;10.22;95.76
68594;BME280;55563;52.416;13.548;2023-03-18T08:40:02;100768.72;;;10.56;93.54
68594;BME280;55563;52.416;13.548;2023-03-18T08:42:10;100767.88;;;10.45;94.52
68594;BME280;55563;52.416;13.548;2023-03-18T08:44:24;100779.31;;;10.71;93.70
68594;BME280;55563;52.416;13.548;2023-03-18T08:46:25;100783.16;;;10.48;92.68
68594;BME280;55563;52.416;13.548;2023-03-18T08:48:26;100780.09;;;10.67;93.06
68594;BME280;55563;52.416;13.548;2023-03-18T08:50:27;100780.56;;;10.54;95.49
68594;BME280;55563;52.416;13.548;2023-03-18T08:52:29;100778.22;;;10.62;97.04
68594;BME280;55563;52.416;13.548;2023-03-18T08:54:30;100771.50;;;10.81;94.84
68594;BME280;55563;52.416;13.548;2023-03-18T08:56:31;100778.06;;;10.84;93.74
68594;BME280;55563;52.416;13.548;2023-03-18T08:58:32;100776.25;;;10.89;93.53
68594;BME280;55563;52.416;13.548;2023-03-18T09:00:34;100777.13;;;11.10;93.21
68594;BME280;55563;52.416;13.548;2023-03-18T09:02:36;100760.91;;;11.49;92.22
68594;BME280;55563;52.416;13.548;2023-03-18T09:04:37;100763.59;;;11.64;91.90
68594;BME280;55563;52.416;13.548;2023-03-18T09:06:38;100760.38;;;11.47;91.33
68594;BME280;55563;52.416;13.548;2023-03-18T09:08:39;100753.25;;;11.42;92.71
68594;BME280;55563;52.416;13.548;2023-03-18T09:10:40;100758.09;;;11.91;92.19
68594;BME280;55563;52.416;13.548;2023-03-18T09:12:40;100769.94;;;11.88;90.52
68594;BME280;55563;52.416;13.548;2023-03-18T09:14:41;100777.84;;;11.78;91.98
68594;BME280;55563;52.416;13.548;2023-03-18T09:16:43;100788.13;;;11.74;92.60
68594;BME280;55563;52.416;13.548;2023-03-18T09:18:45;100785.13;;;11.35;92.43
68594;BME280;55563;52.416;13.548;2023-03-18T09:20:46;100787.78;;;11.61;91.96
68594;BME280;55563;52.416;13.548;2023-03-18T09:22:46;100793.84;;;11.71;92.06
68594;BME280;55563;52.416;13.548;2023-03-18T09:24:47;100792.81;;;11.67;91.79
68594;BME280;55563;52.416;13.548;2023-03-18T09:26:48;100790.47;;;11.81;92.34
68594;BME280;55563;52.416;13.548;2023-03-18T09:28:48;100787.59;;;11.83;93.03
68594;BME280;55563;52.416;13.548;2023-03-18T09:30:49;100792.06;;;12.07;91.67
68594;BME280;55563;52.416;13.548;2023-03-18T09:32:50;100786.28;;;12.15;91.07
68594;BME280;55563;52.416;13.548;2023-03-18T09:34:52;100786.25;;;12.26;91.09
68594;BME280;55563;52.416;13.548;2023-03-18T09:36:53;100786.25;;;12.26;90.51
68594;BME280;55563;52.416;13.548;2023-03-18T09:38:54;100785.72;;;12.44;90.78
68594;BME280;55563;52.416;13.548;2023-03-18T09:41:03;100799.69;;;12.34;90.05
68594;BME280;55563;52.416;13.548;2023-03-18T09:44:02;100790.47;;;12.47;89.50
68594;BME280;55563;52.416;13.548;2023-03-18T09:48:32;100802.28;;;12.64;87.90
68594;BME280;55563;52.416;13.548;2023-03-18T09:55:36;100794.66;;;13.32;89.07
68594;BME280;55563;52.416;13.548;2023-03-18T09:57:44;100800.19;;;13.36;87.32
68594;BME280;55563;52.416;13.548;2023-03-18T09:59:49;100797.19;;;13.52;85.43
68594;BME280;55563;52.416;13.548;2023-03-18T10:01:55;100790.63;;;13.45;86.12
68594;BME280;55563;52.416;13.548;2023-03-18T10:04:25;100795.38;;;13.87;84.21
68594;BME280;55563;52.416;13.548;2023-03-18T10:06:28;100795.44;;;13.77;85.34
68594;BME280;55563;52.416;13.548;2023-03-18T10:08:41;100794.66;;;13.76;83.81
68594;BME280;55563;52.416;13.548;2023-03-18T10:10:44;100800.09;;;13.51;84.18
68594;BME280;55563;52.416;13.548;2023-03-18T10:12:51;100800.44;;;13.78;85.11
68594;BME280;55563;52.416;13.548;2023-03-18T10:15:05;100791.16;;;13.86;83.17
68594;BME280;55563;52.416;13.548;2023-03-18T10:17:18;100793.31;;;14.13;83.59
68594;BME280;55563;52.416;13.548;2023-03-18T10:19:20;100799.75;;;14.30;82.02
68594;BME280;55563;52.416;13.548;2023-03-18T10:21:41;100795.38;;;14.50;80.57
68594;BME280;55563;52.416;13.548;2023-03-18T10:26:16;100799.22;;;14.62;78.74
68594;BME280;55563;52.416;13.548;2023-03-18T10:30:51;100794.31;;;14.51;76.56
68594;BME280;55563;52.416;13.548;2023-03-18T10:33:16;100801.00;;;14.43;80.47
68594;BME280;55563;52.416;13.548;2023-03-18T10:35:39;100801.56;;;14.64;81.27
68594;BME280;55563;52.416;13.548;2023-03-18T10:37:56;100795.84;;;14.80;78.56
68594;BME280;55563;52.416;13.548;2023-03-18T10:40:04;100792.69;;;15.21;81.65
68594;BME280;55563;52.416;13.548;2023-03-18T10:42:26;100805.91;;;14.78;79.23
68594;BME280;55563;52.416;13.548;2023-03-18T10:44:33;100797.75;;;14.99;78.93
68594;BME280;55563;52.416;13.548;2023-03-18T10:46:36;100799.66;;;14.69;80.01
68594;BME280;55563;52.416;13.548;2023-03-18T10:48:43;100800.88;;;15.24;78.51
68594;BME280;55563;52.416;13.548;2023-03-18T10:50:54;100795.53;;;14.82;81.85
68594;BME280;55563;52.416;13.548;2023-03-18T10:53:06;100797.75;;;14.99;80.15
68594;BME280;55563;52.416;13.548;2023-03-18T10:55:15;100798.66;;;14.65;80.42
68594;BME280;55563;52.416;13.548;2023-03-18T10:57:17;100790.91;;;15.35;82.32
68594;BME280;55563;52.416;13.548;2023-03-18T10:59:21;100804.31;;;15.25;79.86
68594;BME280;55563;52.416;13.548;2023-03-18T11:01:23;100805.97;;;14.97;80.86
68594;BME280;55563;52.416;13.548;2023-03-18T11:03:32;100802.78;;;15.19;82.42
68594;BME280;55563;52.416;13.548;2023-03-18T11:05:35;100810.06;;;15.69;81.95
68594;BME280;55563;52.416;13.548;2023-03-18T11:08:10;100803.34;;;15.77;78.99
68594;BME280;55563;52.416;13.548;2023-03-18T11:10:23;100806.09;;;15.30;79.87
68594;BME280;55563;52.416;13.548;2023-03-18T11:12:26;100810.50;;;15.77;81.54
68594;BME280;55563;52.416;13.548;2023-03-18T11:14:30;100803.66;;;15.89;80.31
68594;BME280;55563;52.416;13.548;2023-03-18T11:16:40;100805.84;;;15.87;77.69
68594;BME280;55563;52.416;13.548;2023-03-18T11:18:46;100797.69;;;16.16;79.25
68594;BME280;55563;52.416;13.548;2023-03-18T11:20:56;100803.06;;;16.11;79.74
68594;BME280;55563;52.416;13.548;2023-03-18T11:23:04;100799.41;;;16.07;78.08
68594;BME280;55563;52.416;13.548;2023-03-18T11:25:15;100792.88;;;15.86;78.58
68594;BME280;55563;52.416;13.548;2023-03-18T11:27:24;100787.47;;;15.91;80.48
68594;BME280;55563;52.416;13.548;2023-03-18T11:29:28;100796.75;;;16.39;78.83
68594;BME280;55563;52.416;13.548;2023-03-18T11:31:34;100790.34;;;16.40;76.78
68594;BME280;55563;52.416;13.548;2023-03-18T11:33:47;100783.31;;;16.17;77.93
68594;BME280;55563;52.416;13.548;2023-03-18T11:35:53;100779.09;;;15.84;79.92
68594;BME280;55563;52.416;13.548;2023-03-18T11:37:54;100790.56;;;16.57;78.84
68594;BME280;55563;52.416;13.548;2023-03-18T11:40:07;100779.72;;;16.40;77.18
68594;BME280;55563;52.416;13.548;2023-03-18T11:42:18;100784.34;;;16.35;78.72
68594;BME280;55563;52.416;13.548;2023-03-18T11:44:29;100779.25;;;16.93;76.31
68594;BME280;55563;52.416;13.548;2023-03-18T11:46:52;100789.50;;;16.99;79.53
68594;BME280;55563;52.416;13.548;2023-03-18T11:48:55;100783.84;;;16.46;79.08
68594;BME280;55563;52.416;13.548;2023-03-18T11:50:59;100787.22;;;16.52;79.16
68594;BME280;55563;52.416;13.548;2023-03-18T11:53:25;100794.63;;;16.96;79.09
68594;BME280;55563;52.416;13.548;2023-03-18T11:55:38;100789.13;;;16.92;80.66
68594;BME280;55563;52.416;13.548;2023-03-18T12:00:36;100784.94;;;17.63;78.03